Airfield :







YOU CAN JOIN US ON...

 
LOGIN :

Register | Disclaimer

   EN    FR    IT 

 









Legend :    VFR   Marginal VFR   IFR   Intensive IFR   Very Intensive IFR
Visi :
Ceiling :
>= 8 km
>= 3000ft
5 to 8 km
1000 to 3000 ft
1500m to 5 km
500 to 1000 ft
800 to 1500m
200 to 500 ft
< 800m
< 200 ft
Symbols :   Thunderstorms  Fog  Heavy snow  Heavy precipitations  Wind > 20 kt







- Airport Elevation : 129 ft
- IATA code : YVP


CYVP - Kuujjuak

CURRENT METAR :
  • 201700Z 27015G26KT 15SM VCSH BKN034 11/03 A2983 RMK CU7 SLP105

EXPIRED METARs :
  • 201624Z 26015G27KT 15SM -SHRA BKN031 10/03 A2982 RMK CU7 SLP102
  • 201600Z 27012G27KT 220V300 15SM VCSH BKN032 10/03 A2982 RMK CU7 SLP102
  • 201541Z 27017G26KT 15SM VCSH BKN028 10/02 A2982 RMK CU7 SLP101
  • 201500Z 27016G24KT 15SM -SHRA BKN025 09/03 A2982 RMK CU7 SLP102

TAF TAF CYVP
Valid from the 20 at 18:00 until the 21 at 06:00 UTC


201738Z 2018/2106 27015G25KT P6SM BKN030
TEMPO 2018/2106 P6SM -SHRA BKN020
BECMG 2023/2101 27010G20KT RMK NXT FCST BY 210000Z
No reported NOTAMs for that airfield.



MET'MAP, your aeronautical weather chart ! - Copyright ORBIFLY December 2007 - Disclaimer

ORBIFLY MET'MAP TEAM :

Programming & Development : Alexandra Zaïnal
Concept & Development : Baudouin d'Aumeries
Co-Development & Prog : Marc-Olivier Méhu
Technical & hardware support : Manuel Goepfert

Contact : metmap@orbifly.com




SOURCES & CREDITS :

   NOAA